createdAt,value
2023-05-14T00:00:42.056Z,12.54
2023-05-14T00:01:42.097Z,12.51
2023-05-14T00:02:42.111Z,12.48
2023-05-14T00:03:42.376Z,12.45
2023-05-14T00:04:42.053Z,12.45
2023-05-14T00:05:42.012Z,12.41
2023-05-14T00:06:41.978Z,12.41
2023-05-14T00:07:42.013Z,12.39
2023-05-14T00:08:41.954Z,12.38
2023-05-14T00:09:41.958Z,12.34
2023-05-14T00:10:42.225Z,12.31
2023-05-14T00:11:41.931Z,12.33
2023-05-14T00:12:41.924Z,12.29
2023-05-14T00:13:41.949Z,12.30
2023-05-14T00:14:41.886Z,12.26
2023-05-14T00:15:41.931Z,12.24
2023-05-14T00:16:41.893Z,12.24
2023-05-14T00:17:42.203Z,12.20
2023-05-14T00:18:41.879Z,12.20
2023-05-14T00:19:41.918Z,12.19
2023-05-14T00:20:45.160Z,12.19
2023-05-14T00:21:41.827Z,12.19
2023-05-14T00:22:41.821Z,12.19
2023-05-14T00:23:41.805Z,12.15
2023-05-14T00:24:42.077Z,12.13
2023-05-14T00:25:41.824Z,12.12
2023-05-14T00:26:41.856Z,12.12
2023-05-14T00:27:41.758Z,12.11
2023-05-14T00:28:41.758Z,12.11
2023-05-14T00:29:41.741Z,12.11
2023-05-14T00:30:41.745Z,12.09
2023-05-14T00:31:42.104Z,12.09
2023-05-14T00:32:41.742Z,12.11
2023-05-14T00:33:41.683Z,12.08
2023-05-14T00:34:41.694Z,12.09
2023-05-14T00:35:41.695Z,12.08
2023-05-14T00:36:41.655Z,12.05
2023-05-14T00:37:41.705Z,12.02
2023-05-14T00:38:41.937Z,12.01
2023-05-14T00:39:41.626Z,11.99
2023-05-14T00:40:41.614Z,11.97
2023-05-14T00:41:41.642Z,11.97
2023-05-14T00:42:41.602Z,11.96
2023-05-14T00:43:41.646Z,11.96
2023-05-14T00:44:41.605Z,11.90
2023-05-14T00:45:41.834Z,11.93
2023-05-14T00:46:41.544Z,11.93
2023-05-14T00:47:41.685Z,11.87
2023-05-14T00:48:41.571Z,11.86
2023-05-14T00:49:41.556Z,11.85
2023-05-14T00:50:41.515Z,11.85
2023-05-14T00:51:41.555Z,11.83
2023-05-14T00:52:41.774Z,11.82
2023-05-14T00:53:41.498Z,11.82
2023-05-14T00:54:41.497Z,11.80
2023-05-14T00:55:41.528Z,11.77
2023-05-14T00:56:41.443Z,11.77
2023-05-14T00:57:41.455Z,11.74
2023-05-14T00:58:41.473Z,11.71
2023-05-14T00:59:41.705Z,11.71
2023-05-14T01:00:41.415Z,11.72
2023-05-14T01:01:41.453Z,11.70
2023-05-14T01:02:41.437Z,11.68
2023-05-14T01:03:41.505Z,11.67
2023-05-14T01:04:41.373Z,11.65
2023-05-14T01:05:41.359Z,11.64
2023-05-14T01:06:41.605Z,11.62
2023-05-14T01:07:41.420Z,11.62
2023-05-14T01:08:41.319Z,11.59
2023-05-14T01:09:41.327Z,11.59
2023-05-14T01:10:41.313Z,11.56
2023-05-14T01:11:41.288Z,11.56
2023-05-14T01:12:41.294Z,11.53
2023-05-14T01:13:41.628Z,11.52
2023-05-14T01:14:41.260Z,11.52
2023-05-14T01:15:41.250Z,11.50
2023-05-14T01:16:41.257Z,11.50
2023-05-14T01:17:41.239Z,11.49
2023-05-14T01:18:41.233Z,11.46
2023-05-14T01:19:41.239Z,11.46
2023-05-14T01:20:42.202Z,11.43
2023-05-14T01:21:41.179Z,11.43
2023-05-14T01:22:41.157Z,11.41
2023-05-14T01:23:41.222Z,11.38
2023-05-14T01:24:41.150Z,11.36
2023-05-14T01:25:41.211Z,11.32
2023-05-14T01:26:41.120Z,11.34
2023-05-14T01:27:41.412Z,11.32
2023-05-14T01:28:41.112Z,11.29
2023-05-14T01:29:41.090Z,11.31
2023-05-14T01:30:41.058Z,11.27
2023-05-14T01:31:41.211Z,11.28
2023-05-14T01:32:41.624Z,11.31
2023-05-14T01:33:41.069Z,11.29
2023-05-14T01:34:41.355Z,11.29
2023-05-14T01:35:41.056Z,11.31
2023-05-14T01:36:41.023Z,11.29
2023-05-14T01:37:41.042Z,11.27
2023-05-14T01:38:40.998Z,11.24
2023-05-14T01:39:40.978Z,11.25
2023-05-14T01:40:40.966Z,11.24
2023-05-14T01:41:41.238Z,11.25
2023-05-14T01:42:40.950Z,11.24
2023-05-14T01:43:40.972Z,11.24
2023-05-14T01:44:40.926Z,11.20
2023-05-14T01:45:40.938Z,11.21
2023-05-14T01:46:41.109Z,11.20
2023-05-14T01:47:40.921Z,11.20
2023-05-14T01:48:41.155Z,11.19
2023-05-14T01:49:40.940Z,11.19
2023-05-14T01:50:40.871Z,11.17
2023-05-14T01:51:40.847Z,11.19
2023-05-14T01:52:40.844Z,11.17
2023-05-14T01:53:40.897Z,11.19
2023-05-14T01:54:40.823Z,11.17
2023-05-14T01:55:41.115Z,11.17
2023-05-14T01:56:40.803Z,11.19
2023-05-14T01:57:40.798Z,11.20
2023-05-14T01:58:40.767Z,11.20
2023-05-14T01:59:40.777Z,11.21
2023-05-14T02:00:40.739Z,11.21
2023-05-14T02:01:41.683Z,11.19
2023-05-14T02:02:41.096Z,11.19
2023-05-14T02:03:40.804Z,11.19
2023-05-14T02:04:40.722Z,11.16
2023-05-14T02:05:40.708Z,11.14
2023-05-14T02:06:40.682Z,11.14
2023-05-14T02:07:40.767Z,11.13
2023-05-14T02:08:40.667Z,11.13
2023-05-14T02:09:40.985Z,11.11
2023-05-14T02:10:40.649Z,11.11
2023-05-14T02:11:40.625Z,11.11
2023-05-14T02:12:40.660Z,11.10
2023-05-14T02:13:40.676Z,11.09
2023-05-14T02:14:40.633Z,11.03
2023-05-14T02:15:40.638Z,11.03
2023-05-14T02:16:40.859Z,11.01
2023-05-14T02:17:40.593Z,11.01
2023-05-14T02:18:40.590Z,11.01
2023-05-14T02:19:40.591Z,10.99
2023-05-14T02:20:40.546Z,10.98
2023-05-14T02:21:40.542Z,10.99
2023-05-14T02:22:40.520Z,10.99
2023-05-14T02:23:42.215Z,10.99
2023-05-14T02:24:40.494Z,10.98
2023-05-14T02:25:40.549Z,10.96
2023-05-14T02:26:40.482Z,10.98
2023-05-14T02:27:40.486Z,10.94
2023-05-14T02:28:40.459Z,10.94
2023-05-14T02:29:40.438Z,10.92
2023-05-14T02:30:40.704Z,10.94
2023-05-14T02:31:40.525Z,10.89
2023-05-14T02:32:40.498Z,10.91
2023-05-14T02:33:40.469Z,10.86
2023-05-14T02:34:40.380Z,10.86
2023-05-14T02:35:40.374Z,10.83
2023-05-14T02:36:40.367Z,10.80
2023-05-14T02:37:40.704Z,10.78
2023-05-14T02:38:40.355Z,10.77
2023-05-14T02:39:40.345Z,10.74
2023-05-14T02:40:40.337Z,10.73
2023-05-14T02:41:40.309Z,10.74
2023-05-14T02:42:40.310Z,10.71
2023-05-14T02:43:40.332Z,10.71
2023-05-14T02:44:40.626Z,10.68
2023-05-14T02:45:40.287Z,10.66
2023-05-14T02:46:40.359Z,10.66
2023-05-14T02:47:40.258Z,10.66
2023-05-14T02:48:40.258Z,10.65
2023-05-14T02:49:40.258Z,10.63
2023-05-14T02:50:40.223Z,10.62
2023-05-14T02:51:40.504Z,10.62
2023-05-14T02:52:40.202Z,10.59
2023-05-14T02:53:40.188Z,10.59
2023-05-14T02:54:40.186Z,10.59
2023-05-14T02:55:40.209Z,10.56
2023-05-14T02:56:40.185Z,10.56
2023-05-14T02:57:40.138Z,10.53
2023-05-14T02:58:40.156Z,10.53
2023-05-14T02:59:40.140Z,10.52
2023-05-14T03:00:40.136Z,10.51
2023-05-14T03:01:40.169Z,10.47
2023-05-14T03:02:40.275Z,10.44
2023-05-14T03:03:40.403Z,10.42
2023-05-14T03:04:40.091Z,10.42
2023-05-14T03:05:40.064Z,10.40
2023-05-14T03:06:40.068Z,10.37
2023-05-14T03:07:40.082Z,10.36
2023-05-14T03:08:40.033Z,10.33
2023-05-14T03:09:40.022Z,10.30
2023-05-14T03:10:40.021Z,10.30
2023-05-14T03:11:40.015Z,10.32
2023-05-14T03:12:39.986Z,10.32
2023-05-14T03:13:40.005Z,10.32
2023-05-14T03:14:39.973Z,10.32
2023-05-14T03:15:40.288Z,10.26
2023-05-14T03:16:40.005Z,10.28
2023-05-14T03:17:39.965Z,10.30
2023-05-14T03:18:39.954Z,10.28
2023-05-14T03:19:39.956Z,10.26
2023-05-14T03:20:39.900Z,10.24
2023-05-14T03:21:39.889Z,10.19
2023-05-14T03:22:40.158Z,10.17
2023-05-14T03:23:39.872Z,10.15
2023-05-14T03:24:39.893Z,10.14
2023-05-14T03:25:39.887Z,10.12
2023-05-14T03:26:39.863Z,10.14
2023-05-14T03:27:39.821Z,10.10
2023-05-14T03:28:39.855Z,10.07
2023-05-14T03:29:40.094Z,10.06
2023-05-14T03:30:39.836Z,10.04
2023-05-14T03:31:39.819Z,10.04
2023-05-14T03:32:39.802Z,10.00
2023-05-14T03:33:39.815Z,9.99
2023-05-14T03:34:39.778Z,9.96
2023-05-14T03:35:39.760Z,9.93
2023-05-14T03:36:40.018Z,9.93
2023-05-14T03:37:39.793Z,9.89
2023-05-14T03:38:39.732Z,9.89
2023-05-14T03:39:39.688Z,9.89
2023-05-14T03:40:39.686Z,9.91
2023-05-14T03:41:39.668Z,9.93
2023-05-14T03:42:39.665Z,9.88
2023-05-14T03:43:39.991Z,9.89
2023-05-14T03:44:39.679Z,9.88
2023-05-14T03:45:39.639Z,9.88
2023-05-14T03:46:39.636Z,9.86
2023-05-14T03:47:39.704Z,9.88
2023-05-14T03:48:39.624Z,9.88
2023-05-14T03:49:39.664Z,9.86
2023-05-14T03:50:39.860Z,9.85
2023-05-14T03:51:39.567Z,9.83
2023-05-14T03:52:39.618Z,9.85
2023-05-14T03:53:39.553Z,9.85
2023-05-14T03:54:39.537Z,9.86
2023-05-14T03:55:39.562Z,9.86
2023-05-14T03:56:39.562Z,9.85
2023-05-14T03:57:39.825Z,9.82
2023-05-14T03:58:39.495Z,9.82
2023-05-14T03:59:39.494Z,9.82
2023-05-14T04:00:39.468Z,9.82
2023-05-14T04:01:39.499Z,9.81
2023-05-14T04:02:39.630Z,9.81
2023-05-14T04:03:39.595Z,9.81
2023-05-14T04:04:39.798Z,9.82
2023-05-14T04:05:39.427Z,9.86
2023-05-14T04:06:39.421Z,9.86
2023-05-14T04:07:39.700Z,9.86
2023-05-14T04:08:39.412Z,9.89
2023-05-14T04:09:39.380Z,9.88
2023-05-14T04:10:39.406Z,9.89
2023-05-14T04:11:39.373Z,9.93
2023-05-14T04:12:39.350Z,9.94
2023-05-14T04:13:39.366Z,9.96
2023-05-14T04:14:39.321Z,9.94
2023-05-14T04:15:39.483Z,9.99
2023-05-14T04:16:39.353Z,9.99
2023-05-14T04:17:39.596Z,10.01
2023-05-14T04:18:39.352Z,10.04
2023-05-14T04:19:39.363Z,10.03
2023-05-14T04:20:39.284Z,10.04
2023-05-14T04:21:39.264Z,10.06
2023-05-14T04:22:39.258Z,10.09
2023-05-14T04:23:39.231Z,10.14
2023-05-14T04:24:39.537Z,10.18
2023-05-14T04:25:39.266Z,10.21
2023-05-14T04:26:39.213Z,10.24
2023-05-14T04:27:39.181Z,10.25
2023-05-14T04:28:39.182Z,10.30
2023-05-14T04:29:39.170Z,10.30
2023-05-14T04:30:39.161Z,10.33
2023-05-14T04:31:39.527Z,10.36
2023-05-14T04:32:39.194Z,10.39
2023-05-14T04:33:39.142Z,10.43
2023-05-14T04:34:39.113Z,10.44
2023-05-14T04:35:39.119Z,10.47
2023-05-14T04:36:39.109Z,10.53
2023-05-14T04:37:39.165Z,10.56
2023-05-14T04:38:39.404Z,10.59
2023-05-14T04:39:39.079Z,10.60
2023-05-14T04:40:39.058Z,10.62
2023-05-14T04:41:39.038Z,10.66
2023-05-14T04:42:39.028Z,10.68
2023-05-14T04:43:39.060Z,10.71
2023-05-14T04:44:39.032Z,10.76
2023-05-14T04:45:39.318Z,10.78
2023-05-14T04:46:39.024Z,10.80
2023-05-14T04:47:38.995Z,10.83
2023-05-14T04:48:38.976Z,10.84
2023-05-14T04:49:39.005Z,10.88
2023-05-14T04:50:38.934Z,10.92
2023-05-14T04:51:38.964Z,10.95
2023-05-14T04:52:39.213Z,10.95
2023-05-14T04:53:38.911Z,10.98
2023-05-14T04:54:38.924Z,10.99
2023-05-14T04:55:38.924Z,11.01
2023-05-14T04:56:38.889Z,10.99
2023-05-14T04:57:38.873Z,11.03
2023-05-14T04:58:38.867Z,11.06
2023-05-14T04:59:39.138Z,11.06
2023-05-14T05:00:38.853Z,11.07
2023-05-14T05:01:38.912Z,11.07
2023-05-14T05:02:38.843Z,11.09
2023-05-14T05:03:45.655Z,11.11
2023-05-14T05:04:38.789Z,11.10
2023-05-14T05:05:38.790Z,11.11
2023-05-14T05:06:39.056Z,11.10
2023-05-14T05:07:38.818Z,11.07
2023-05-14T05:08:38.761Z,11.09
2023-05-14T05:09:38.752Z,11.10
2023-05-14T05:10:38.754Z,11.11
2023-05-14T05:11:38.720Z,11.11
2023-05-14T05:12:38.722Z,11.13
2023-05-14T05:13:39.067Z,11.14
2023-05-14T05:14:38.699Z,11.14
2023-05-14T05:15:38.716Z,11.16
2023-05-14T05:16:38.685Z,11.19
2023-05-14T05:17:38.685Z,11.19
2023-05-14T05:18:38.729Z,11.24
2023-05-14T05:19:43.888Z,11.27
2023-05-14T05:20:38.638Z,11.28
2023-05-14T05:21:38.640Z,11.29
2023-05-14T05:22:38.624Z,11.32
2023-05-14T05:23:38.686Z,11.34
2023-05-14T05:24:38.611Z,11.38
2023-05-14T05:25:38.684Z,11.39
2023-05-14T05:26:38.862Z,11.46
2023-05-14T05:27:38.557Z,11.50
2023-05-14T05:28:38.551Z,11.56
2023-05-14T05:29:38.530Z,11.61
2023-05-14T05:30:38.536Z,11.65
2023-05-14T05:31:38.553Z,11.71
2023-05-14T05:32:38.592Z,11.74
2023-05-14T05:33:38.510Z,11.77
2023-05-14T05:34:38.532Z,11.85
2023-05-14T05:35:38.485Z,11.89
2023-05-14T05:36:38.463Z,11.99
2023-05-14T05:37:38.492Z,12.05
2023-05-14T05:38:38.436Z,12.11
2023-05-14T05:39:38.435Z,12.15
2023-05-14T05:40:38.417Z,12.21
2023-05-14T05:41:38.406Z,12.27
2023-05-14T05:42:38.403Z,12.33
2023-05-14T05:43:38.436Z,12.38
2023-05-14T05:44:38.669Z,12.44
2023-05-14T05:45:38.373Z,12.46
2023-05-14T05:46:38.410Z,12.51
2023-05-14T05:47:38.375Z,12.54
2023-05-14T05:48:38.368Z,12.60
2023-05-14T05:49:38.376Z,12.64
2023-05-14T05:50:38.312Z,12.67
2023-05-14T05:51:38.614Z,12.75
2023-05-14T05:52:38.294Z,12.78
2023-05-14T05:53:38.286Z,12.84
2023-05-14T05:54:38.271Z,12.88
2023-05-14T05:55:38.309Z,12.95
2023-05-14T05:56:38.288Z,12.97
2023-05-14T05:57:38.247Z,13.02
2023-05-14T05:58:38.582Z,13.06
2023-05-14T05:59:38.231Z,13.12
2023-05-14T06:00:38.210Z,13.20
2023-05-14T06:01:38.253Z,13.25
2023-05-14T06:02:38.301Z,13.37
2023-05-14T06:03:38.176Z,13.51
2023-05-14T06:04:38.200Z,13.95
2023-05-14T06:05:38.522Z,14.61
2023-05-14T06:06:38.165Z,15.42
2023-05-14T06:07:38.190Z,16.14
2023-05-14T06:08:38.131Z,16.78
2023-05-14T06:09:38.123Z,17.43
2023-05-14T06:10:38.114Z,17.91
2023-05-14T06:11:38.098Z,18.13
2023-05-14T06:12:38.385Z,18.43
2023-05-14T06:13:38.178Z,18.90
2023-05-14T06:14:38.065Z,19.33
2023-05-14T06:15:38.081Z,19.66
2023-05-14T06:16:38.112Z,19.93
2023-05-14T06:17:38.152Z,20.16
2023-05-14T06:18:38.119Z,20.35
2023-05-14T06:19:38.326Z,20.49
2023-05-14T06:20:38.023Z,20.50
2023-05-14T06:21:38.000Z,20.68
2023-05-14T06:22:37.972Z,20.93
2023-05-14T06:23:37.975Z,20.99
2023-05-14T06:24:37.994Z,21.05
2023-05-14T06:25:37.996Z,20.96
2023-05-14T06:26:38.219Z,21.05
2023-05-14T06:27:37.953Z,21.26
2023-05-14T06:28:37.920Z,21.35
2023-05-14T06:29:37.915Z,21.54
2023-05-14T06:30:37.894Z,21.72
2023-05-14T06:31:38.031Z,21.92
2023-05-14T06:32:37.906Z,21.92
2023-05-14T06:33:38.158Z,22.20
2023-05-14T06:34:40.666Z,22.43
2023-05-14T06:35:37.868Z,22.49
2023-05-14T06:36:37.854Z,22.71
2023-05-14T06:37:37.873Z,22.87
2023-05-14T06:38:37.844Z,22.83
2023-05-14T06:39:37.806Z,22.56
2023-05-14T06:40:38.123Z,22.49
2023-05-14T06:41:37.793Z,22.56
2023-05-14T06:42:37.777Z,22.39
2023-05-14T06:43:37.852Z,22.59
2023-05-14T06:44:39.649Z,22.75
2023-05-14T06:45:37.767Z,22.92
2023-05-14T06:46:37.745Z,22.72
2023-05-14T06:47:38.004Z,22.56
2023-05-14T06:48:37.759Z,22.69
2023-05-14T06:49:37.795Z,22.96
2023-05-14T06:50:37.680Z,23.27
2023-05-14T06:51:37.697Z,23.34
2023-05-14T06:52:37.675Z,23.31
2023-05-14T06:53:37.671Z,23.20
2023-05-14T06:54:37.963Z,23.02
2023-05-14T06:55:38.155Z,22.99
2023-05-14T06:56:37.615Z,22.86
2023-05-14T06:57:39.846Z,23.01
2023-05-14T06:58:37.624Z,22.97
2023-05-14T06:59:37.590Z,22.90
2023-05-14T07:00:37.630Z,22.87
2023-05-14T07:01:37.971Z,23.01
2023-05-14T07:02:37.661Z,22.99
2023-05-14T07:03:37.557Z,22.99
2023-05-14T07:04:37.592Z,22.75
2023-05-14T07:05:37.541Z,22.57
2023-05-14T07:06:37.625Z,22.44
2023-05-14T07:07:37.569Z,22.32
2023-05-14T07:08:37.772Z,22.50
2023-05-14T07:09:37.540Z,22.50
2023-05-14T07:10:37.491Z,22.23
2023-05-14T07:11:37.533Z,22.39
2023-05-14T07:12:37.507Z,22.34
2023-05-14T07:13:37.580Z,22.10
2023-05-14T07:14:37.440Z,22.37
2023-05-14T07:15:37.445Z,22.39
2023-05-14T07:16:37.451Z,21.90
2023-05-14T07:17:37.424Z,21.48
2023-05-14T07:18:37.435Z,21.50
2023-05-14T07:19:37.495Z,21.72
2023-05-14T07:20:37.407Z,22.01
2023-05-14T07:21:37.373Z,22.04
2023-05-14T07:22:37.359Z,22.22
2023-05-14T07:23:37.363Z,22.34
2023-05-14T07:24:37.605Z,22.54
2023-05-14T07:25:37.410Z,22.59
2023-05-14T07:26:37.323Z,22.83
2023-05-14T07:27:37.307Z,23.01
2023-05-14T07:28:37.281Z,23.15
2023-05-14T07:29:37.318Z,23.01
2023-05-14T07:30:37.280Z,23.01
2023-05-14T07:31:37.367Z,23.09
2023-05-14T07:32:37.300Z,22.93
2023-05-14T07:33:37.262Z,23.04
2023-05-14T07:34:37.274Z,22.99
2023-05-14T07:35:37.243Z,22.92
2023-05-14T07:36:37.526Z,22.74
2023-05-14T07:37:37.293Z,22.57
2023-05-14T07:38:37.282Z,22.64
2023-05-14T07:39:37.220Z,22.84
2023-05-14T07:40:37.252Z,23.08
2023-05-14T07:41:37.174Z,23.24
2023-05-14T07:42:37.601Z,23.38
2023-05-14T07:43:37.493Z,23.34
2023-05-14T07:44:37.160Z,23.19
2023-05-14T07:45:37.124Z,22.90
2023-05-14T07:46:37.101Z,22.56
2023-05-14T07:47:37.188Z,22.47
2023-05-14T07:48:37.201Z,22.46
2023-05-14T07:49:37.125Z,22.57
2023-05-14T07:50:37.355Z,22.67
2023-05-14T07:51:37.080Z,22.74
2023-05-14T07:52:37.047Z,22.77
2023-05-14T07:53:37.066Z,22.68
2023-05-14T07:54:37.072Z,22.56
2023-05-14T07:55:37.103Z,22.60
2023-05-14T07:56:37.026Z,22.32
2023-05-14T07:57:37.288Z,22.20
2023-05-14T07:58:37.021Z,22.17
2023-05-14T07:59:37.029Z,21.78
2023-05-14T08:00:37.021Z,21.85
2023-05-14T08:01:39.162Z,21.69
2023-05-14T08:02:37.040Z,21.72
2023-05-14T08:03:37.110Z,21.69
2023-05-14T08:04:37.291Z,21.72
2023-05-14T08:05:36.919Z,21.98
2023-05-14T08:06:36.933Z,21.94
2023-05-14T08:07:36.957Z,22.01
2023-05-14T08:08:36.910Z,21.97
2023-05-14T08:09:36.865Z,21.92
2023-05-14T08:10:36.886Z,21.90
2023-05-14T08:11:37.154Z,22.12
2023-05-14T08:12:36.903Z,22.17
2023-05-14T08:13:36.880Z,22.25
2023-05-14T08:14:36.922Z,22.44
2023-05-14T08:15:36.852Z,22.56
2023-05-14T08:16:36.824Z,22.59
2023-05-14T08:17:36.798Z,22.56
2023-05-14T08:18:36.783Z,22.37
2023-05-14T08:19:36.800Z,22.39
2023-05-14T08:20:36.794Z,22.25
2023-05-14T08:21:36.776Z,22.13
2023-05-14T08:22:36.739Z,21.99
2023-05-14T08:23:36.738Z,21.66
2023-05-14T08:24:37.024Z,21.51
2023-05-14T08:25:36.839Z,21.36
2023-05-14T08:26:36.724Z,21.53
2023-05-14T08:27:36.771Z,21.57
2023-05-14T08:28:36.689Z,21.54
2023-05-14T08:29:36.680Z,21.78
2023-05-14T08:30:36.732Z,21.78
2023-05-14T08:31:36.946Z,21.63
2023-05-14T08:32:36.648Z,21.72
2023-05-14T08:33:36.724Z,22.13
2023-05-14T08:34:36.652Z,22.28
2023-05-14T08:35:36.675Z,22.23
2023-05-14T08:36:36.608Z,22.39
2023-05-14T08:37:36.715Z,22.25
2023-05-14T08:38:36.868Z,22.39
2023-05-14T08:39:36.592Z,22.39
2023-05-14T08:40:36.592Z,22.31
2023-05-14T08:41:36.559Z,22.20
2023-05-14T08:42:36.546Z,21.95
2023-05-14T08:43:36.598Z,21.74
2023-05-14T08:44:36.514Z,21.66
2023-05-14T08:45:36.781Z,21.81
2023-05-14T08:46:36.526Z,21.64
2023-05-14T08:47:36.510Z,21.53
2023-05-14T08:48:36.501Z,21.46
2023-05-14T08:49:36.547Z,21.32
2023-05-14T08:50:36.465Z,21.16
2023-05-14T08:51:36.432Z,20.91
2023-05-14T08:52:36.729Z,21.11
2023-05-14T08:53:36.426Z,20.98
2023-05-14T08:54:36.444Z,20.93
2023-05-14T08:55:36.481Z,20.87
2023-05-14T08:56:36.464Z,21.02
2023-05-14T08:57:36.407Z,21.02
2023-05-14T08:58:36.386Z,21.19
2023-05-14T08:59:36.697Z,21.23
2023-05-14T09:00:36.373Z,21.27
2023-05-14T09:01:36.448Z,21.39
2023-05-14T09:02:36.370Z,21.71
2023-05-14T09:03:36.466Z,21.83
2023-05-14T09:04:36.310Z,22.02
2023-05-14T09:05:36.323Z,21.99
2023-05-14T09:06:36.566Z,22.13
2023-05-14T09:07:36.406Z,22.31
2023-05-14T09:08:36.360Z,22.53
2023-05-14T09:09:36.288Z,22.56
2023-05-14T09:10:36.291Z,22.39
2023-05-14T09:11:36.353Z,22.41
2023-05-14T09:12:36.273Z,22.56
2023-05-14T09:13:36.618Z,22.60
2023-05-14T09:14:36.366Z,22.65
2023-05-14T09:15:36.286Z,22.68
2023-05-14T09:16:36.365Z,22.62
2023-05-14T09:17:36.325Z,22.57
2023-05-14T09:18:36.283Z,22.60
2023-05-14T09:19:36.267Z,22.56
2023-05-14T09:20:36.447Z,22.41
2023-05-14T09:21:36.234Z,22.31
2023-05-14T09:22:36.208Z,22.22
2023-05-14T09:23:36.160Z,22.29
2023-05-14T09:24:36.104Z,22.23
2023-05-14T09:25:36.360Z,22.53
2023-05-14T09:26:36.210Z,22.80
2023-05-14T09:27:36.346Z,22.99
2023-05-14T09:28:36.141Z,23.04
2023-05-14T09:29:36.201Z,22.77
2023-05-14T09:30:36.113Z,22.75
2023-05-14T09:31:36.193Z,22.78
2023-05-14T09:32:36.108Z,22.53
2023-05-14T09:33:36.153Z,22.60
2023-05-14T09:34:36.349Z,22.54
2023-05-14T09:35:36.036Z,22.35
2023-05-14T09:36:36.011Z,22.23
2023-05-14T09:37:36.061Z,22.02
2023-05-14T09:38:35.966Z,22.06
2023-05-14T09:39:35.960Z,22.10
2023-05-14T09:40:35.966Z,22.17
2023-05-14T09:41:36.258Z,22.41
2023-05-14T09:42:36.047Z,22.43
2023-05-14T09:43:36.098Z,22.20
2023-05-14T09:44:35.925Z,22.12
2023-05-14T09:45:35.916Z,22.02
2023-05-14T09:46:35.920Z,22.07
2023-05-14T09:47:35.998Z,22.43
2023-05-14T09:48:36.278Z,22.69
2023-05-14T09:49:35.929Z,22.80
2023-05-14T09:50:36.015Z,22.90
2023-05-14T09:51:35.860Z,22.99
2023-05-14T09:52:35.847Z,23.04
2023-05-14T09:53:35.906Z,23.26
2023-05-14T09:54:36.855Z,23.49
2023-05-14T09:55:36.147Z,23.61
2023-05-14T09:56:35.906Z,23.68
2023-05-14T09:57:35.864Z,23.61
2023-05-14T09:58:35.844Z,23.85
2023-05-14T09:59:35.846Z,23.87
2023-05-14T10:00:35.816Z,23.67
2023-05-14T10:01:35.967Z,23.62
2023-05-14T10:02:36.142Z,23.57
2023-05-14T10:03:35.853Z,23.52
2023-05-14T10:04:35.821Z,23.62
2023-05-14T10:05:35.764Z,23.75
2023-05-14T10:06:35.782Z,23.64
2023-05-14T10:07:35.774Z,23.79
2023-05-14T10:08:35.738Z,23.95
2023-05-14T10:09:36.245Z,24.01
2023-05-14T10:10:35.716Z,23.82
2023-05-14T10:11:35.684Z,23.52
2023-05-14T10:12:35.642Z,23.46
2023-05-14T10:13:35.812Z,23.53
2023-05-14T10:14:35.723Z,23.61
2023-05-14T10:15:35.684Z,23.67
2023-05-14T10:16:36.031Z,23.45
2023-05-14T10:17:35.826Z,23.35
2023-05-14T10:18:35.639Z,23.52
2023-05-14T10:19:35.646Z,23.80
2023-05-14T10:20:35.631Z,24.00
2023-05-14T10:21:35.561Z,24.02
2023-05-14T10:22:35.579Z,23.92
2023-05-14T10:23:35.829Z,24.01
2023-05-14T10:24:35.524Z,24.10
2023-05-14T10:25:35.588Z,24.14
2023-05-14T10:26:36.557Z,24.31
2023-05-14T10:27:35.564Z,24.50
2023-05-14T10:28:35.556Z,24.67
2023-05-14T10:29:35.557Z,24.80
2023-05-14T10:30:35.790Z,24.98
2023-05-14T10:31:35.734Z,25.02
2023-05-14T10:32:35.466Z,24.82
2023-05-14T10:33:35.426Z,24.23
2023-05-14T10:34:35.453Z,23.68
2023-05-14T10:35:35.557Z,23.43
2023-05-14T10:36:35.453Z,23.62
2023-05-14T10:37:35.800Z,23.87
2023-05-14T10:38:35.479Z,24.16
2023-05-14T10:39:35.386Z,24.35
2023-05-14T10:40:35.434Z,24.52
2023-05-14T10:41:35.360Z,24.71
2023-05-14T10:42:35.397Z,24.94
2023-05-14T10:43:35.424Z,25.27
2023-05-14T10:44:35.348Z,25.05
2023-05-14T10:45:35.355Z,24.98
2023-05-14T10:46:35.451Z,24.91
2023-05-14T10:47:35.304Z,25.01
2023-05-14T10:48:35.385Z,25.24
2023-05-14T10:49:43.581Z,25.47
2023-05-14T10:50:35.318Z,25.54
2023-05-14T10:51:35.354Z,25.72
2023-05-14T10:52:35.268Z,25.77
2023-05-14T10:53:35.237Z,25.79
2023-05-14T10:54:35.235Z,25.83
2023-05-14T10:55:35.563Z,25.77
2023-05-14T10:56:35.260Z,25.57
2023-05-14T10:57:35.193Z,25.54
2023-05-14T10:58:35.157Z,25.59
2023-05-14T10:59:35.246Z,25.64
2023-05-14T11:00:35.166Z,25.65
2023-05-14T11:01:35.303Z,25.67
2023-05-14T11:02:35.464Z,25.75
2023-05-14T11:03:35.194Z,25.89
2023-05-14T11:04:35.161Z,26.05
2023-05-14T11:05:35.143Z,26.04
2023-05-14T11:06:35.467Z,26.17
2023-05-14T11:07:35.216Z,25.93
2023-05-14T11:08:35.095Z,25.97
2023-05-14T11:09:35.336Z,26.09
2023-05-14T11:10:35.161Z,26.39
2023-05-14T11:11:35.051Z,26.64
2023-05-14T11:12:35.045Z,26.62
2023-05-14T11:13:35.123Z,26.42
2023-05-14T11:14:35.019Z,26.24
2023-05-14T11:15:35.002Z,26.22
2023-05-14T11:16:35.432Z,26.43
2023-05-14T11:17:35.048Z,26.57
2023-05-14T11:18:35.110Z,26.57
2023-05-14T11:19:35.033Z,26.80
2023-05-14T11:20:34.973Z,26.49
2023-05-14T11:21:35.019Z,25.12
2023-05-14T11:22:35.108Z,24.59
2023-05-14T11:23:35.206Z,24.68
2023-05-14T11:24:35.023Z,24.92
2023-05-14T11:25:35.002Z,24.85
2023-05-14T11:26:34.938Z,24.85
2023-05-14T11:27:34.880Z,25.00
2023-05-14T11:28:35.008Z,24.95
2023-05-14T11:29:35.002Z,24.87
2023-05-14T11:30:35.148Z,25.06
2023-05-14T11:31:34.981Z,24.80
2023-05-14T11:32:34.932Z,24.59
2023-05-14T11:33:34.945Z,24.90
2023-05-14T11:34:34.826Z,25.32
2023-05-14T11:35:34.856Z,25.72
2023-05-14T11:36:34.829Z,26.04
2023-05-14T11:37:35.173Z,26.28
2023-05-14T11:38:34.883Z,26.59
2023-05-14T11:39:34.860Z,26.67
2023-05-14T11:40:34.875Z,26.21
2023-05-14T11:41:34.804Z,26.37
2023-05-14T11:42:34.801Z,26.72
2023-05-14T11:43:35.037Z,26.92
2023-05-14T11:44:35.008Z,27.16
2023-05-14T11:45:34.753Z,27.38
2023-05-14T11:46:34.755Z,27.32
2023-05-14T11:47:34.761Z,27.02
2023-05-14T11:48:34.704Z,26.36
2023-05-14T11:49:34.755Z,25.83
2023-05-14T11:50:34.691Z,25.35
2023-05-14T11:51:35.017Z,25.15
2023-05-14T11:52:34.726Z,25.02
2023-05-14T11:53:34.669Z,24.63
2023-05-14T11:54:34.685Z,24.71
2023-05-14T11:55:34.704Z,25.30
2023-05-14T11:56:34.645Z,25.90
2023-05-14T11:57:34.848Z,26.35
2023-05-14T11:58:35.381Z,26.52
2023-05-14T11:59:34.670Z,26.32
2023-05-14T12:00:34.783Z,26.57
2023-05-14T12:01:34.698Z,26.77
2023-05-14T12:02:34.765Z,27.01
2023-05-14T12:03:34.814Z,27.23
2023-05-14T12:04:34.645Z,27.26
2023-05-14T12:05:34.932Z,27.16
2023-05-14T12:06:34.642Z,27.14
2023-05-14T12:07:34.561Z,26.83
2023-05-14T12:08:34.664Z,26.79
2023-05-14T12:09:34.496Z,26.84
2023-05-14T12:10:34.674Z,27.01
2023-05-14T12:11:34.523Z,26.96
2023-05-14T12:12:34.836Z,26.80
2023-05-14T12:13:34.623Z,26.74
2023-05-14T12:14:34.492Z,26.50
2023-05-14T12:15:34.501Z,26.58
2023-05-14T12:16:38.260Z,26.52
2023-05-14T12:17:34.470Z,25.80
2023-05-14T12:18:34.698Z,24.91
2023-05-14T12:19:34.892Z,24.34
2023-05-14T12:20:34.584Z,24.13
2023-05-14T12:21:34.372Z,24.10
2023-05-14T12:22:36.872Z,24.16
2023-05-14T12:23:34.457Z,24.69
2023-05-14T12:24:34.438Z,25.12
2023-05-14T12:25:34.587Z,25.49
2023-05-14T12:26:34.627Z,25.72
2023-05-14T12:27:34.313Z,25.87
2023-05-14T12:28:37.587Z,26.27
2023-05-14T12:29:34.464Z,26.36
2023-05-14T12:30:34.363Z,26.50
2023-05-14T12:31:34.419Z,26.68
2023-05-14T12:32:34.436Z,26.65
2023-05-14T12:33:35.651Z,26.21
2023-05-14T12:34:35.941Z,26.01
2023-05-14T12:35:34.513Z,25.84
2023-05-14T12:36:34.263Z,25.90
2023-05-14T12:37:34.284Z,25.83
2023-05-14T12:38:34.238Z,25.84
2023-05-14T12:39:34.178Z,25.91
2023-05-14T12:40:34.498Z,26.06
2023-05-14T12:41:34.201Z,25.99
2023-05-14T12:42:34.208Z,25.80
2023-05-14T12:43:34.338Z,25.99
2023-05-14T12:44:34.230Z,26.11
2023-05-14T12:45:34.173Z,26.11
2023-05-14T12:46:34.240Z,25.68
2023-05-14T12:47:34.796Z,25.68
2023-05-14T12:48:34.145Z,25.68
2023-05-14T12:49:34.163Z,25.71
2023-05-14T12:50:34.180Z,25.67
2023-05-14T12:51:34.216Z,25.25
2023-05-14T12:52:38.322Z,25.07
2023-05-14T12:53:34.037Z,25.01
2023-05-14T12:54:34.321Z,25.10